LYNI/INI METAR and TAF weather

Enter ICAO airport designator
Station Type Date Time Source
LYNI METAR 2020/07/08 01:30 UTC NOAA

LYNI 080130Z 00000KT CAVOK 10/09 Q1018 NOSIG


Station Type Date Time Source
LYNI Decoded METAR 2020/07/08 01:30 UTC NOAA

Nis, Serbia and Montenegro (LYNI) 43-20N 021-54E 202M
Jul 07, 2020 - 09:30 PM EDT / 2020.07.08 0130 UTC
Wind: Calm:0
Visibility: greater than 7 mile(s):0
Temperature: 50 F (10 C)
Dew Point: 48 F (9 C)
Relative Humidity: 93%
Pressure (altimeter): 30.06 in. Hg (1018 hPa)
ob: LYNI 080130Z 00000KT CAVOK 10/09 Q1018 NOSIG
cycle: 1

Station Type Date Time Source
LYNI TAF 2020/07/07 18:21 UTC NOAA

TAF LYNI 071700Z 0718/0818 31008KT 9999 BKN030 TX25/0812Z TN10/0804Z

Example: see airport list